sensor_id;sensor_type;location;lat;lon;timestamp;temperature;humidity
20712;DHT22;10517;50.742;4.224;2024-02-14T00:01:31;9.40;99.90
20712;DHT22;10517;50.742;4.224;2024-02-14T00:03:56;9.40;99.90
20712;DHT22;10517;50.742;4.224;2024-02-14T00:06:22;9.40;99.90
20712;DHT22;10517;50.742;4.224;2024-02-14T00:08:49;9.50;99.90
20712;DHT22;10517;50.742;4.224;2024-02-14T00:11:14;9.50;99.90
20712;DHT22;10517;50.742;4.224;2024-02-14T00:13:40;9.50;99.90
20712;DHT22;10517;50.742;4.224;2024-02-14T00:16:06;9.50;99.90
20712;DHT22;10517;50.742;4.224;2024-02-14T00:18:32;9.50;99.90
20712;DHT22;10517;50.742;4.224;2024-02-14T00:20:57;9.50;99.90
20712;DHT22;10517;50.742;4.224;2024-02-14T00:23:23;9.50;99.90
20712;DHT22;10517;50.742;4.224;2024-02-14T00:25:48;9.50;99.90
20712;DHT22;10517;50.742;4.224;2024-02-14T00:28:14;9.50;99.90
20712;DHT22;10517;50.742;4.224;2024-02-14T00:30:39;9.50;99.90
20712;DHT22;10517;50.742;4.224;2024-02-14T00:33:05;9.50;99.90
20712;DHT22;10517;50.742;4.224;2024-02-14T00:35:32;9.60;99.90
20712;DHT22;10517;50.742;4.224;2024-02-14T00:37:57;9.60;99.90
20712;DHT22;10517;50.742;4.224;2024-02-14T00:40:23;9.60;99.90
20712;DHT22;10517;50.742;4.224;2024-02-14T00:42:49;9.60;99.90
20712;DHT22;10517;50.742;4.224;2024-02-14T00:45:14;9.60;99.90
20712;DHT22;10517;50.742;4.224;2024-02-14T00:47:40;9.60;99.90
20712;DHT22;10517;50.742;4.224;2024-02-14T00:50:06;9.60;99.90
20712;DHT22;10517;50.742;4.224;2024-02-14T00:52:32;9.60;99.90
20712;DHT22;10517;50.742;4.224;2024-02-14T00:54:57;9.70;99.90
20712;DHT22;10517;50.742;4.224;2024-02-14T00:57:23;9.70;99.90
20712;DHT22;10517;50.742;4.224;2024-02-14T00:59:52;9.60;99.90
20712;DHT22;10517;50.742;4.224;2024-02-14T01:02:18;9.70;99.90
20712;DHT22;10517;50.742;4.224;2024-02-14T01:04:43;9.70;99.90
20712;DHT22;10517;50.742;4.224;2024-02-14T01:07:09;9.70;99.90
20712;DHT22;10517;50.742;4.224;2024-02-14T01:09:35;9.80;99.90
20712;DHT22;10517;50.742;4.224;2024-02-14T01:12:02;9.70;99.90
20712;DHT22;10517;50.742;4.224;2024-02-14T01:14:27;9.70;99.90
20712;DHT22;10517;50.742;4.224;2024-02-14T01:16:53;9.70;99.90
20712;DHT22;10517;50.742;4.224;2024-02-14T01:19:19;9.80;99.90
20712;DHT22;10517;50.742;4.224;2024-02-14T01:21:45;9.80;99.90
20712;DHT22;10517;50.742;4.224;2024-02-14T01:24:14;9.80;99.90
20712;DHT22;10517;50.742;4.224;2024-02-14T01:26:39;9.80;99.90
20712;DHT22;10517;50.742;4.224;2024-02-14T01:29:06;9.80;99.90
20712;DHT22;10517;50.742;4.224;2024-02-14T01:31:32;9.80;99.90
20712;DHT22;10517;50.742;4.224;2024-02-14T01:33:58;9.90;99.90
20712;DHT22;10517;50.742;4.224;2024-02-14T01:36:28;9.90;99.90
20712;DHT22;10517;50.742;4.224;2024-02-14T01:38:54;9.90;99.90
20712;DHT22;10517;50.742;4.224;2024-02-14T01:41:20;9.90;99.90
20712;DHT22;10517;50.742;4.224;2024-02-14T01:43:47;9.90;99.90
20712;DHT22;10517;50.742;4.224;2024-02-14T01:46:14;9.90;99.90
20712;DHT22;10517;50.742;4.224;2024-02-14T01:48:41;9.90;99.90
20712;DHT22;10517;50.742;4.224;2024-02-14T01:51:09;10.00;99.90
20712;DHT22;10517;50.742;4.224;2024-02-14T01:53:36;10.00;99.90
20712;DHT22;10517;50.742;4.224;2024-02-14T01:56:03;9.90;99.90
20712;DHT22;10517;50.742;4.224;2024-02-14T01:58:30;10.00;99.90
20712;DHT22;10517;50.742;4.224;2024-02-14T02:00:55;10.00;99.90
20712;DHT22;10517;50.742;4.224;2024-02-14T02:03:24;10.00;99.90
20712;DHT22;10517;50.742;4.224;2024-02-14T02:05:50;10.00;99.90
20712;DHT22;10517;50.742;4.224;2024-02-14T02:08:16;10.10;99.90
20712;DHT22;10517;50.742;4.224;2024-02-14T02:10:42;10.00;99.90
20712;DHT22;10517;50.742;4.224;2024-02-14T02:13:08;9.90;99.90
20712;DHT22;10517;50.742;4.224;2024-02-14T02:15:34;9.90;99.90
20712;DHT22;10517;50.742;4.224;2024-02-14T02:18:01;10.00;99.90
20712;DHT22;10517;50.742;4.224;2024-02-14T02:20:28;9.90;99.90
20712;DHT22;10517;50.742;4.224;2024-02-14T02:22:53;10.00;99.90
20712;DHT22;10517;50.742;4.224;2024-02-14T02:25:19;10.00;99.90
20712;DHT22;10517;50.742;4.224;2024-02-14T02:27:52;10.10;99.90
20712;DHT22;10517;50.742;4.224;2024-02-14T02:30:23;10.10;99.90
20712;DHT22;10517;50.742;4.224;2024-02-14T02:32:49;10.10;99.90
20712;DHT22;10517;50.742;4.224;2024-02-14T02:35:17;10.20;99.90
20712;DHT22;10517;50.742;4.224;2024-02-14T02:37:45;10.20;99.90
20712;DHT22;10517;50.742;4.224;2024-02-14T02:40:11;10.30;99.90
20712;DHT22;10517;50.742;4.224;2024-02-14T02:42:38;10.30;99.90
20712;DHT22;10517;50.742;4.224;2024-02-14T02:45:03;10.30;99.90
20712;DHT22;10517;50.742;4.224;2024-02-14T02:47:34;10.20;99.90
20712;DHT22;10517;50.742;4.224;2024-02-14T02:49:59;10.20;99.90
20712;DHT22;10517;50.742;4.224;2024-02-14T02:52:27;10.30;99.90
20712;DHT22;10517;50.742;4.224;2024-02-14T02:54:53;10.20;99.90
20712;DHT22;10517;50.742;4.224;2024-02-14T02:57:19;10.40;99.90
20712;DHT22;10517;50.742;4.224;2024-02-14T02:59:45;10.30;99.90
20712;DHT22;10517;50.742;4.224;2024-02-14T03:02:12;10.40;99.90
20712;DHT22;10517;50.742;4.224;2024-02-14T03:04:38;10.40;99.90
20712;DHT22;10517;50.742;4.224;2024-02-14T03:07:05;10.50;99.90
20712;DHT22;10517;50.742;4.224;2024-02-14T03:09:36;10.50;99.90
20712;DHT22;10517;50.742;4.224;2024-02-14T03:12:03;10.50;99.90
20712;DHT22;10517;50.742;4.224;2024-02-14T03:14:32;10.50;99.90
20712;DHT22;10517;50.742;4.224;2024-02-14T03:17:02;10.60;99.90
20712;DHT22;10517;50.742;4.224;2024-02-14T03:19:28;10.50;99.90
20712;DHT22;10517;50.742;4.224;2024-02-14T03:21:54;10.60;99.90
20712;DHT22;10517;50.742;4.224;2024-02-14T03:24:20;10.60;99.90
20712;DHT22;10517;50.742;4.224;2024-02-14T03:26:46;10.70;99.90
20712;DHT22;10517;50.742;4.224;2024-02-14T03:29:12;10.60;99.90
20712;DHT22;10517;50.742;4.224;2024-02-14T03:31:38;10.60;99.90
20712;DHT22;10517;50.742;4.224;2024-02-14T03:34:03;10.60;99.90
20712;DHT22;10517;50.742;4.224;2024-02-14T03:36:29;10.60;99.90
20712;DHT22;10517;50.742;4.224;2024-02-14T03:38:57;10.70;99.90
20712;DHT22;10517;50.742;4.224;2024-02-14T03:41:22;10.60;99.90
20712;DHT22;10517;50.742;4.224;2024-02-14T03:43:48;10.60;99.90
20712;DHT22;10517;50.742;4.224;2024-02-14T03:46:18;10.60;99.90
20712;DHT22;10517;50.742;4.224;2024-02-14T03:48:46;10.60;99.90
20712;DHT22;10517;50.742;4.224;2024-02-14T03:51:13;10.60;99.90
20712;DHT22;10517;50.742;4.224;2024-02-14T03:53:39;10.50;99.90
20712;DHT22;10517;50.742;4.224;2024-02-14T03:56:05;10.40;99.90
20712;DHT22;10517;50.742;4.224;2024-02-14T03:58:32;10.40;99.90
20712;DHT22;10517;50.742;4.224;2024-02-14T04:01:03;10.40;99.90
20712;DHT22;10517;50.742;4.224;2024-02-14T04:03:28;10.40;99.90
20712;DHT22;10517;50.742;4.224;2024-02-14T04:05:54;10.40;99.90
20712;DHT22;10517;50.742;4.224;2024-02-14T04:08:20;10.40;99.90
20712;DHT22;10517;50.742;4.224;2024-02-14T04:10:45;10.40;99.90
20712;DHT22;10517;50.742;4.224;2024-02-14T04:13:11;10.50;99.90
20712;DHT22;10517;50.742;4.224;2024-02-14T04:15:37;10.50;99.90
20712;DHT22;10517;50.742;4.224;2024-02-14T04:18:03;10.40;99.90
20712;DHT22;10517;50.742;4.224;2024-02-14T04:20:31;10.50;99.90
20712;DHT22;10517;50.742;4.224;2024-02-14T04:22:57;10.60;99.90
20712;DHT22;10517;50.742;4.224;2024-02-14T04:25:24;10.60;99.90
20712;DHT22;10517;50.742;4.224;2024-02-14T04:27:49;10.70;99.90
20712;DHT22;10517;50.742;4.224;2024-02-14T04:30:15;10.70;99.90
20712;DHT22;10517;50.742;4.224;2024-02-14T04:32:40;10.70;99.90
20712;DHT22;10517;50.742;4.224;2024-02-14T04:35:07;10.60;99.90
20712;DHT22;10517;50.742;4.224;2024-02-14T04:37:34;10.70;99.90
20712;DHT22;10517;50.742;4.224;2024-02-14T04:39:59;10.60;99.90
20712;DHT22;10517;50.742;4.224;2024-02-14T04:42:25;10.70;99.90
20712;DHT22;10517;50.742;4.224;2024-02-14T04:44:50;10.60;99.90
20712;DHT22;10517;50.742;4.224;2024-02-14T04:47:16;10.70;99.90
20712;DHT22;10517;50.742;4.224;2024-02-14T04:49:41;10.60;99.90
20712;DHT22;10517;50.742;4.224;2024-02-14T04:52:07;10.60;99.90
20712;DHT22;10517;50.742;4.224;2024-02-14T04:54:33;10.70;99.90
20712;DHT22;10517;50.742;4.224;2024-02-14T04:56:59;10.70;99.90
20712;DHT22;10517;50.742;4.224;2024-02-14T04:59:25;10.60;99.90
20712;DHT22;10517;50.742;4.224;2024-02-14T05:01:50;10.60;99.90
20712;DHT22;10517;50.742;4.224;2024-02-14T05:04:18;10.50;99.90
20712;DHT22;10517;50.742;4.224;2024-02-14T05:06:44;10.50;99.90
20712;DHT22;10517;50.742;4.224;2024-02-14T05:09:10;10.50;99.90
20712;DHT22;10517;50.742;4.224;2024-02-14T05:11:40;10.50;99.90
20712;DHT22;10517;50.742;4.224;2024-02-14T05:14:05;10.50;99.90
20712;DHT22;10517;50.742;4.224;2024-02-14T05:16:31;10.50;99.90
20712;DHT22;10517;50.742;4.224;2024-02-14T05:18:57;10.50;99.90
20712;DHT22;10517;50.742;4.224;2024-02-14T05:21:22;10.40;99.90
20712;DHT22;10517;50.742;4.224;2024-02-14T05:23:48;10.40;99.90
20712;DHT22;10517;50.742;4.224;2024-02-14T05:26:14;10.40;99.90
20712;DHT22;10517;50.742;4.224;2024-02-14T05:28:39;10.50;99.90
20712;DHT22;10517;50.742;4.224;2024-02-14T05:31:05;10.60;99.90
20712;DHT22;10517;50.742;4.224;2024-02-14T05:33:30;10.60;99.90
20712;DHT22;10517;50.742;4.224;2024-02-14T05:35:56;10.60;99.90
20712;DHT22;10517;50.742;4.224;2024-02-14T05:38:22;10.60;99.90
20712;DHT22;10517;50.742;4.224;2024-02-14T05:40:48;10.60;99.90
20712;DHT22;10517;50.742;4.224;2024-02-14T05:43:15;10.60;99.90
20712;DHT22;10517;50.742;4.224;2024-02-14T05:45:41;10.60;99.90
20712;DHT22;10517;50.742;4.224;2024-02-14T05:48:07;10.60;99.90
20712;DHT22;10517;50.742;4.224;2024-02-14T05:50:33;10.70;99.90
20712;DHT22;10517;50.742;4.224;2024-02-14T05:52:59;10.70;99.90
20712;DHT22;10517;50.742;4.224;2024-02-14T05:55:25;10.70;99.90
20712;DHT22;10517;50.742;4.224;2024-02-14T05:57:51;10.70;99.90
20712;DHT22;10517;50.742;4.224;2024-02-14T06:00:20;10.70;99.90
20712;DHT22;10517;50.742;4.224;2024-02-14T06:02:47;10.70;99.90
20712;DHT22;10517;50.742;4.224;2024-02-14T06:05:13;10.60;99.90
20712;DHT22;10517;50.742;4.224;2024-02-14T06:07:40;10.60;99.90
20712;DHT22;10517;50.742;4.224;2024-02-14T06:10:06;10.70;99.90
20712;DHT22;10517;50.742;4.224;2024-02-14T06:12:32;10.80;99.90
20712;DHT22;10517;50.742;4.224;2024-02-14T06:14:58;11.00;99.90
20712;DHT22;10517;50.742;4.224;2024-02-14T06:17:23;11.00;99.90
20712;DHT22;10517;50.742;4.224;2024-02-14T06:19:49;10.90;99.90
20712;DHT22;10517;50.742;4.224;2024-02-14T06:22:15;10.90;99.90
20712;DHT22;10517;50.742;4.224;2024-02-14T06:24:40;10.90;99.90
20712;DHT22;10517;50.742;4.224;2024-02-14T06:27:06;10.90;99.90
20712;DHT22;10517;50.742;4.224;2024-02-14T06:29:32;10.90;99.90
20712;DHT22;10517;50.742;4.224;2024-02-14T06:31:58;11.00;99.90
20712;DHT22;10517;50.742;4.224;2024-02-14T06:34:23;11.00;99.90
20712;DHT22;10517;50.742;4.224;2024-02-14T06:36:49;10.90;99.90
20712;DHT22;10517;50.742;4.224;2024-02-14T06:39:15;10.80;99.90
20712;DHT22;10517;50.742;4.224;2024-02-14T06:41:40;10.80;99.90
20712;DHT22;10517;50.742;4.224;2024-02-14T06:44:06;10.80;99.90
20712;DHT22;10517;50.742;4.224;2024-02-14T06:46:32;10.70;99.90
20712;DHT22;10517;50.742;4.224;2024-02-14T06:48:57;10.70;99.90
20712;DHT22;10517;50.742;4.224;2024-02-14T06:51:23;10.70;99.90
20712;DHT22;10517;50.742;4.224;2024-02-14T06:53:50;10.60;99.90
20712;DHT22;10517;50.742;4.224;2024-02-14T06:56:16;10.60;99.90
20712;DHT22;10517;50.742;4.224;2024-02-14T06:58:41;10.60;99.90
20712;DHT22;10517;50.742;4.224;2024-02-14T07:01:07;10.60;99.90
20712;DHT22;10517;50.742;4.224;2024-02-14T07:03:33;10.60;99.90
20712;DHT22;10517;50.742;4.224;2024-02-14T07:05:59;10.60;99.90
20712;DHT22;10517;50.742;4.224;2024-02-14T07:08:25;10.70;99.90
20712;DHT22;10517;50.742;4.224;2024-02-14T07:10:54;10.70;99.90
20712;DHT22;10517;50.742;4.224;2024-02-14T07:13:19;10.80;99.90
20712;DHT22;10517;50.742;4.224;2024-02-14T07:15:45;10.80;99.90
20712;DHT22;10517;50.742;4.224;2024-02-14T07:18:11;10.80;99.90
20712;DHT22;10517;50.742;4.224;2024-02-14T07:20:36;10.80;99.90
20712;DHT22;10517;50.742;4.224;2024-02-14T07:23:02;10.90;99.90
20712;DHT22;10517;50.742;4.224;2024-02-14T07:25:28;10.90;99.90
20712;DHT22;10517;50.742;4.224;2024-02-14T07:27:54;11.00;99.90
20712;DHT22;10517;50.742;4.224;2024-02-14T07:30:19;11.00;99.90
20712;DHT22;10517;50.742;4.224;2024-02-14T07:32:45;11.00;99.90
20712;DHT22;10517;50.742;4.224;2024-02-14T07:35:11;11.00;99.90
20712;DHT22;10517;50.742;4.224;2024-02-14T07:37:39;11.00;99.90
20712;DHT22;10517;50.742;4.224;2024-02-14T07:40:05;11.00;99.90
20712;DHT22;10517;50.742;4.224;2024-02-14T07:42:31;11.00;99.90
20712;DHT22;10517;50.742;4.224;2024-02-14T07:44:57;11.00;99.90
20712;DHT22;10517;50.742;4.224;2024-02-14T07:47:22;11.00;99.90
20712;DHT22;10517;50.742;4.224;2024-02-14T07:49:48;11.00;99.90
20712;DHT22;10517;50.742;4.224;2024-02-14T07:52:13;11.00;99.90
20712;DHT22;10517;50.742;4.224;2024-02-14T07:54:39;11.00;99.90
20712;DHT22;10517;50.742;4.224;2024-02-14T07:57:05;11.10;99.90
20712;DHT22;10517;50.742;4.224;2024-02-14T07:59:30;11.20;99.90
20712;DHT22;10517;50.742;4.224;2024-02-14T08:01:56;11.20;99.90
20712;DHT22;10517;50.742;4.224;2024-02-14T08:04:22;11.10;99.90
20712;DHT22;10517;50.742;4.224;2024-02-14T08:06:48;11.10;99.90
20712;DHT22;10517;50.742;4.224;2024-02-14T08:09:16;11.10;99.90
20712;DHT22;10517;50.742;4.224;2024-02-14T08:11:42;11.20;99.90
20712;DHT22;10517;50.742;4.224;2024-02-14T08:14:07;11.20;99.90
20712;DHT22;10517;50.742;4.224;2024-02-14T08:16:33;11.40;99.90
20712;DHT22;10517;50.742;4.224;2024-02-14T08:18:59;11.40;99.90
20712;DHT22;10517;50.742;4.224;2024-02-14T08:21:25;11.40;99.90
20712;DHT22;10517;50.742;4.224;2024-02-14T08:23:52;11.40;99.90
20712;DHT22;10517;50.742;4.224;2024-02-14T08:26:18;11.40;99.90
20712;DHT22;10517;50.742;4.224;2024-02-14T08:28:44;11.40;99.90
20712;DHT22;10517;50.742;4.224;2024-02-14T08:31:10;11.40;99.90
20712;DHT22;10517;50.742;4.224;2024-02-14T08:33:36;11.50;99.90
20712;DHT22;10517;50.742;4.224;2024-02-14T08:36:03;11.50;99.90
20712;DHT22;10517;50.742;4.224;2024-02-14T08:38:29;11.50;99.90
20712;DHT22;10517;50.742;4.224;2024-02-14T08:40:54;11.50;99.90
20712;DHT22;10517;50.742;4.224;2024-02-14T08:43:20;11.50;99.90
20712;DHT22;10517;50.742;4.224;2024-02-14T08:45:45;11.50;99.90
20712;DHT22;10517;50.742;4.224;2024-02-14T08:48:11;11.50;99.90
20712;DHT22;10517;50.742;4.224;2024-02-14T08:50:36;11.40;99.90
20712;DHT22;10517;50.742;4.224;2024-02-14T08:53:02;11.50;99.90
20712;DHT22;10517;50.742;4.224;2024-02-14T08:55:27;11.50;99.90
20712;DHT22;10517;50.742;4.224;2024-02-14T08:57:54;11.50;99.90
20712;DHT22;10517;50.742;4.224;2024-02-14T09:00:20;11.50;99.90
20712;DHT22;10517;50.742;4.224;2024-02-14T09:02:46;11.50;99.90
20712;DHT22;10517;50.742;4.224;2024-02-14T09:05:14;11.60;99.90
20712;DHT22;10517;50.742;4.224;2024-02-14T09:07:41;11.70;99.90
20712;DHT22;10517;50.742;4.224;2024-02-14T09:10:07;11.60;99.90
20712;DHT22;10517;50.742;4.224;2024-02-14T09:12:32;11.70;99.90
20712;DHT22;10517;50.742;4.224;2024-02-14T09:14:58;11.70;99.90
20712;DHT22;10517;50.742;4.224;2024-02-14T09:17:24;11.60;99.90
20712;DHT22;10517;50.742;4.224;2024-02-14T09:19:50;11.60;99.90
20712;DHT22;10517;50.742;4.224;2024-02-14T09:22:16;11.60;99.90
20712;DHT22;10517;50.742;4.224;2024-02-14T09:24:50;11.60;99.90
20712;DHT22;10517;50.742;4.224;2024-02-14T09:27:15;11.70;99.90
20712;DHT22;10517;50.742;4.224;2024-02-14T09:29:41;11.60;99.90
20712;DHT22;10517;50.742;4.224;2024-02-14T09:32:07;11.50;99.90
20712;DHT22;10517;50.742;4.224;2024-02-14T09:34:33;11.50;99.90
20712;DHT22;10517;50.742;4.224;2024-02-14T09:37:00;11.50;99.90
20712;DHT22;10517;50.742;4.224;2024-02-14T09:39:26;11.50;99.90
20712;DHT22;10517;50.742;4.224;2024-02-14T09:41:54;11.60;99.90
20712;DHT22;10517;50.742;4.224;2024-02-14T09:44:27;11.60;99.90
20712;DHT22;10517;50.742;4.224;2024-02-14T09:46:54;11.70;99.90
20712;DHT22;10517;50.742;4.224;2024-02-14T09:49:21;11.80;99.90
20712;DHT22;10517;50.742;4.224;2024-02-14T09:51:48;11.80;99.90
20712;DHT22;10517;50.742;4.224;2024-02-14T09:54:17;11.80;99.90
20712;DHT22;10517;50.742;4.224;2024-02-14T09:56:48;11.80;99.90
20712;DHT22;10517;50.742;4.224;2024-02-14T09:59:16;11.80;99.90
20712;DHT22;10517;50.742;4.224;2024-02-14T10:01:41;11.90;99.90
20712;DHT22;10517;50.742;4.224;2024-02-14T10:04:08;11.90;99.90
20712;DHT22;10517;50.742;4.224;2024-02-14T10:06:34;11.90;99.90
20712;DHT22;10517;50.742;4.224;2024-02-14T10:08:59;11.80;99.90
20712;DHT22;10517;50.742;4.224;2024-02-14T10:11:25;11.80;99.90
20712;DHT22;10517;50.742;4.224;2024-02-14T10:13:52;11.90;99.90
20712;DHT22;10517;50.742;4.224;2024-02-14T10:16:19;11.80;99.90
20712;DHT22;10517;50.742;4.224;2024-02-14T10:18:45;11.80;99.90
20712;DHT22;10517;50.742;4.224;2024-02-14T10:21:16;11.80;99.90
20712;DHT22;10517;50.742;4.224;2024-02-14T10:23:44;11.90;99.90
20712;DHT22;10517;50.742;4.224;2024-02-14T10:26:13;11.90;99.90
20712;DHT22;10517;50.742;4.224;2024-02-14T10:28:44;11.90;99.90
20712;DHT22;10517;50.742;4.224;2024-02-14T10:31:12;11.90;99.90
20712;DHT22;10517;50.742;4.224;2024-02-14T10:33:38;12.00;99.90
20712;DHT22;10517;50.742;4.224;2024-02-14T10:36:07;11.90;99.90
20712;DHT22;10517;50.742;4.224;2024-02-14T10:38:34;11.90;99.90
20712;DHT22;10517;50.742;4.224;2024-02-14T10:41:00;12.00;99.90
20712;DHT22;10517;50.742;4.224;2024-02-14T10:43:27;11.90;99.90
20712;DHT22;10517;50.742;4.224;2024-02-14T10:45:53;11.90;99.90
20712;DHT22;10517;50.742;4.224;2024-02-14T10:48:22;11.90;99.90
20712;DHT22;10517;50.742;4.224;2024-02-14T10:50:53;12.00;99.90
20712;DHT22;10517;50.742;4.224;2024-02-14T10:53:19;12.10;99.90
20712;DHT22;10517;50.742;4.224;2024-02-14T10:55:48;12.10;99.90
20712;DHT22;10517;50.742;4.224;2024-02-14T10:58:16;12.00;99.90
20712;DHT22;10517;50.742;4.224;2024-02-14T11:00:43;12.00;99.90
20712;DHT22;10517;50.742;4.224;2024-02-14T11:03:09;12.00;99.90
20712;DHT22;10517;50.742;4.224;2024-02-14T11:05:45;12.10;99.90
20712;DHT22;10517;50.742;4.224;2024-02-14T11:08:21;12.20;99.90
20712;DHT22;10517;50.742;4.224;2024-02-14T11:10:55;12.30;99.90
20712;DHT22;10517;50.742;4.224;2024-02-14T11:13:28;12.40;99.90
20712;DHT22;10517;50.742;4.224;2024-02-14T11:15:54;12.40;99.90
20712;DHT22;10517;50.742;4.224;2024-02-14T11:18:30;12.50;99.90
20712;DHT22;10517;50.742;4.224;2024-02-14T11:20:56;12.50;99.90
20712;DHT22;10517;50.742;4.224;2024-02-14T11:23:25;12.50;99.90
20712;DHT22;10517;50.742;4.224;2024-02-14T11:26:05;12.50;99.90
20712;DHT22;10517;50.742;4.224;2024-02-14T11:28:37;12.60;99.90
20712;DHT22;10517;50.742;4.224;2024-02-14T11:31:07;12.50;99.90
20712;DHT22;10517;50.742;4.224;2024-02-14T11:33:35;12.50;99.90
20712;DHT22;10517;50.742;4.224;2024-02-14T11:36:07;12.60;99.90
20712;DHT22;10517;50.742;4.224;2024-02-14T11:38:35;12.60;99.90
20712;DHT22;10517;50.742;4.224;2024-02-14T11:41:02;12.60;99.90
20712;DHT22;10517;50.742;4.224;2024-02-14T11:43:29;12.70;99.90
20712;DHT22;10517;50.742;4.224;2024-02-14T11:45:54;12.80;99.90
20712;DHT22;10517;50.742;4.224;2024-02-14T11:48:21;12.90;99.90
20712;DHT22;10517;50.742;4.224;2024-02-14T11:50:49;12.90;99.90
20712;DHT22;10517;50.742;4.224;2024-02-14T11:53:15;12.90;99.90
20712;DHT22;10517;50.742;4.224;2024-02-14T11:55:45;12.80;99.90
20712;DHT22;10517;50.742;4.224;2024-02-14T11:58:15;12.80;99.90
20712;DHT22;10517;50.742;4.224;2024-02-14T12:00:46;12.70;99.90
20712;DHT22;10517;50.742;4.224;2024-02-14T12:03:22;12.80;99.90
20712;DHT22;10517;50.742;4.224;2024-02-14T12:05:50;12.90;99.90
20712;DHT22;10517;50.742;4.224;2024-02-14T12:08:16;13.00;99.90
20712;DHT22;10517;50.742;4.224;2024-02-14T12:10:43;13.10;99.90
20712;DHT22;10517;50.742;4.224;2024-02-14T12:13:13;13.20;99.90
20712;DHT22;10517;50.742;4.224;2024-02-14T12:18:05;13.20;99.90
20712;DHT22;10517;50.742;4.224;2024-02-14T12:20:31;13.40;99.90
20712;DHT22;10517;50.742;4.224;2024-02-14T12:22:58;13.50;99.90
20712;DHT22;10517;50.742;4.224;2024-02-14T12:25:23;13.60;99.90
20712;DHT22;10517;50.742;4.224;2024-02-14T12:27:52;13.60;99.90
20712;DHT22;10517;50.742;4.224;2024-02-14T12:30:18;13.50;99.90
20712;DHT22;10517;50.742;4.224;2024-02-14T12:32:58;13.50;99.90
20712;DHT22;10517;50.742;4.224;2024-02-14T12:35:24;13.40;99.90
20712;DHT22;10517;50.742;4.224;2024-02-14T12:37:50;13.40;99.90
20712;DHT22;10517;50.742;4.224;2024-02-14T12:40:16;13.40;99.90
20712;DHT22;10517;50.742;4.224;2024-02-14T12:42:41;13.50;99.90
20712;DHT22;10517;50.742;4.224;2024-02-14T12:45:07;13.60;99.90
20712;DHT22;10517;50.742;4.224;2024-02-14T12:47:34;13.60;99.90
20712;DHT22;10517;50.742;4.224;2024-02-14T12:50:00;13.50;99.90
20712;DHT22;10517;50.742;4.224;2024-02-14T12:52:26;13.50;99.90
20712;DHT22;10517;50.742;4.224;2024-02-14T12:54:51;13.50;99.90
20712;DHT22;10517;50.742;4.224;2024-02-14T12:57:17;13.40;99.90
20712;DHT22;10517;50.742;4.224;2024-02-14T12:59:44;13.40;99.90
20712;DHT22;10517;50.742;4.224;2024-02-14T13:02:11;13.30;99.90
20712;DHT22;10517;50.742;4.224;2024-02-14T13:04:36;13.40;99.90
20712;DHT22;10517;50.742;4.224;2024-02-14T13:07:02;13.40;99.90
20712;DHT22;10517;50.742;4.224;2024-02-14T13:09:28;13.40;99.90
20712;DHT22;10517;50.742;4.224;2024-02-14T13:11:54;13.40;99.90
20712;DHT22;10517;50.742;4.224;2024-02-14T13:14:19;13.40;99.90
20712;DHT22;10517;50.742;4.224;2024-02-14T13:16:45;13.30;99.90
20712;DHT22;10517;50.742;4.224;2024-02-14T13:19:10;13.40;99.90
20712;DHT22;10517;50.742;4.224;2024-02-14T13:21:36;13.30;99.90
20712;DHT22;10517;50.742;4.224;2024-02-14T13:24:02;13.30;99.90
20712;DHT22;10517;50.742;4.224;2024-02-14T13:26:29;13.40;99.90
20712;DHT22;10517;50.742;4.224;2024-02-14T13:28:54;13.40;99.90
20712;DHT22;10517;50.742;4.224;2024-02-14T13:31:20;13.30;99.90
20712;DHT22;10517;50.742;4.224;2024-02-14T13:33:46;13.30;99.90
20712;DHT22;10517;50.742;4.224;2024-02-14T13:36:12;13.30;99.90
20712;DHT22;10517;50.742;4.224;2024-02-14T13:38:42;13.30;99.90
20712;DHT22;10517;50.742;4.224;2024-02-14T13:41:09;13.30;99.90
20712;DHT22;10517;50.742;4.224;2024-02-14T13:43:36;13.30;99.90
20712;DHT22;10517;50.742;4.224;2024-02-14T13:46:02;13.30;99.90
20712;DHT22;10517;50.742;4.224;2024-02-14T13:48:28;13.30;99.90
20712;DHT22;10517;50.742;4.224;2024-02-14T13:50:53;13.20;99.90
20712;DHT22;10517;50.742;4.224;2024-02-14T13:53:20;13.30;99.90
20712;DHT22;10517;50.742;4.224;2024-02-14T13:55:48;13.30;99.90
20712;DHT22;10517;50.742;4.224;2024-02-14T13:58:13;13.20;99.90
20712;DHT22;10517;50.742;4.224;2024-02-14T14:00:40;13.20;99.90
20712;DHT22;10517;50.742;4.224;2024-02-14T14:03:06;13.20;99.90
20712;DHT22;10517;50.742;4.224;2024-02-14T14:05:32;13.20;99.90
20712;DHT22;10517;50.742;4.224;2024-02-14T14:07:57;13.30;99.90
20712;DHT22;10517;50.742;4.224;2024-02-14T14:10:25;13.30;99.90
20712;DHT22;10517;50.742;4.224;2024-02-14T14:12:51;13.30;99.90
20712;DHT22;10517;50.742;4.224;2024-02-14T14:15:16;13.30;99.90
20712;DHT22;10517;50.742;4.224;2024-02-14T14:17:42;13.40;99.90
20712;DHT22;10517;50.742;4.224;2024-02-14T14:20:08;13.40;99.90
20712;DHT22;10517;50.742;4.224;2024-02-14T14:22:34;13.50;99.90
20712;DHT22;10517;50.742;4.224;2024-02-14T14:24:59;13.40;99.90
20712;DHT22;10517;50.742;4.224;2024-02-14T14:27:25;13.50;99.90
20712;DHT22;10517;50.742;4.224;2024-02-14T14:29:50;13.50;99.90
20712;DHT22;10517;50.742;4.224;2024-02-14T14:32:16;13.50;99.90
20712;DHT22;10517;50.742;4.224;2024-02-14T14:34:44;13.40;99.90
20712;DHT22;10517;50.742;4.224;2024-02-14T14:37:10;13.50;99.90
20712;DHT22;10517;50.742;4.224;2024-02-14T14:39:36;13.50;99.90
20712;DHT22;10517;50.742;4.224;2024-02-14T14:42:02;13.60;99.90
20712;DHT22;10517;50.742;4.224;2024-02-14T14:44:28;13.60;99.90
20712;DHT22;10517;50.742;4.224;2024-02-14T14:46:56;13.60;99.90
20712;DHT22;10517;50.742;4.224;2024-02-14T14:49:21;13.60;99.90
20712;DHT22;10517;50.742;4.224;2024-02-14T14:51:47;13.60;99.90
20712;DHT22;10517;50.742;4.224;2024-02-14T14:54:12;13.70;99.90
20712;DHT22;10517;50.742;4.224;2024-02-14T14:56:38;13.70;99.90
20712;DHT22;10517;50.742;4.224;2024-02-14T14:59:03;13.60;99.90
20712;DHT22;10517;50.742;4.224;2024-02-14T15:01:32;13.50;99.90
20712;DHT22;10517;50.742;4.224;2024-02-14T15:04:00;13.60;99.90
20712;DHT22;10517;50.742;4.224;2024-02-14T15:06:26;13.60;99.90
20712;DHT22;10517;50.742;4.224;2024-02-14T15:08:51;13.60;99.90
20712;DHT22;10517;50.742;4.224;2024-02-14T15:11:17;13.70;99.90
20712;DHT22;10517;50.742;4.224;2024-02-14T15:13:44;13.60;99.90
20712;DHT22;10517;50.742;4.224;2024-02-14T15:16:10;13.80;99.90
20712;DHT22;10517;50.742;4.224;2024-02-14T15:18:36;13.80;99.90
20712;DHT22;10517;50.742;4.224;2024-02-14T15:21:02;13.90;99.90
20712;DHT22;10517;50.742;4.224;2024-02-14T15:23:28;13.90;99.90
20712;DHT22;10517;50.742;4.224;2024-02-14T15:25:54;14.00;99.90
20712;DHT22;10517;50.742;4.224;2024-02-14T15:28:28;14.10;99.90
20712;DHT22;10517;50.742;4.224;2024-02-14T15:30:55;14.00;99.90